sensor_id;sensor_type;location;lat;lon;timestamp;P1;P2;P0
76304;PMS7003;65111;50.536;19.204;2023-05-10T00:01:13;9.00;4.00;3.00
76304;PMS7003;65111;50.536;19.204;2023-05-10T00:03:39;8.33;8.33;5.33
76304;PMS7003;65111;50.536;19.204;2023-05-10T00:06:05;6.00;6.00;6.00
76304;PMS7003;65111;50.536;19.204;2023-05-10T00:08:31;7.00;7.00;6.00
76304;PMS7003;65111;50.536;19.204;2023-05-10T00:10:57;7.00;7.00;6.00
76304;PMS7003;65111;50.536;19.204;2023-05-10T00:13:23;7.67;7.67;4.00
76304;PMS7003;65111;50.536;19.204;2023-05-10T00:15:50;8.00;6.00;4.00
76304;PMS7003;65111;50.536;19.204;2023-05-10T00:18:16;7.50;6.00;4.00
76304;PMS7003;65111;50.536;19.204;2023-05-10T00:20:42;6.00;6.00;4.00
76304;PMS7003;65111;50.536;19.204;2023-05-10T00:23:08;10.00;6.00;4.00
76304;PMS7003;65111;50.536;19.204;2023-05-10T00:25:34;9.00;9.00;6.50
76304;PMS7003;65111;50.536;19.204;2023-05-10T00:28:00;7.00;6.00;4.00
76304;PMS7003;65111;50.536;19.204;2023-05-10T00:30:27;9.00;9.00;7.00
76304;PMS7003;65111;50.536;19.204;2023-05-10T00:32:53;9.00;6.00;4.00
76304;PMS7003;65111;50.536;19.204;2023-05-10T00:35:18;6.50;5.00;4.00
76304;PMS7003;65111;50.536;19.204;2023-05-10T00:37:45;10.00;6.00;4.00
76304;PMS7003;65111;50.536;19.204;2023-05-10T00:40:11;6.50;6.00;6.00
76304;PMS7003;65111;50.536;19.204;2023-05-10T00:42:37;6.00;6.00;4.00
76304;PMS7003;65111;50.536;19.204;2023-05-10T00:45:03;10.00;7.00;6.50
76304;PMS7003;65111;50.536;19.204;2023-05-10T00:47:30;12.00;7.00;4.00
76304;PMS7003;65111;50.536;19.204;2023-05-10T00:49:57;6.00;6.00;4.00
76304;PMS7003;65111;50.536;19.204;2023-05-10T00:52:26;7.00;6.33;6.00
76304;PMS7003;65111;50.536;19.204;2023-05-10T00:54:53;7.00;7.00;6.00
76304;PMS7003;65111;50.536;19.204;2023-05-10T00:57:20;7.00;7.00;6.00
76304;PMS7003;65111;50.536;19.204;2023-05-10T00:59:47;9.00;7.00;6.00
76304;PMS7003;65111;50.536;19.204;2023-05-10T01:02:13;10.00;7.67;7.00
76304;PMS7003;65111;50.536;19.204;2023-05-10T01:04:40;9.00;7.00;6.00
76304;PMS7003;65111;50.536;19.204;2023-05-10T01:07:06;7.00;7.00;4.00
76304;PMS7003;65111;50.536;19.204;2023-05-10T01:09:32;9.00;6.00;4.00
76304;PMS7003;65111;50.536;19.204;2023-05-10T01:11:59;12.00;8.00;6.00
76304;PMS7003;65111;50.536;19.204;2023-05-10T01:14:27;7.00;7.00;6.00
76304;PMS7003;65111;50.536;19.204;2023-05-10T01:16:53;6.00;6.00;4.00
76304;PMS7003;65111;50.536;19.204;2023-05-10T01:19:24;4.00;4.00;3.00
76304;PMS7003;65111;50.536;19.204;2023-05-10T01:35:55;7.00;6.00;6.00
76304;PMS7003;65111;50.536;19.204;2023-05-10T01:46:36;7.00;7.00;6.00
76304;PMS7003;65111;50.536;19.204;2023-05-10T01:49:07;7.00;6.00;4.00
76304;PMS7003;65111;50.536;19.204;2023-05-10T01:51:41;6.00;6.00;4.00
76304;PMS7003;65111;50.536;19.204;2023-05-10T01:54:13;8.00;8.00;6.00
76304;PMS7003;65111;50.536;19.204;2023-05-10T01:56:41;6.67;4.00;3.33
76304;PMS7003;65111;50.536;19.204;2023-05-10T01:59:11;5.33;5.33;4.67
76304;PMS7003;65111;50.536;19.204;2023-05-10T02:01:40;3.00;3.00;3.00
76304;PMS7003;65111;50.536;19.204;2023-05-10T02:04:08;6.50;6.00;4.00
76304;PMS7003;65111;50.536;19.204;2023-05-10T02:06:37;9.00;7.00;6.00
76304;PMS7003;65111;50.536;19.204;2023-05-10T02:09:04;7.00;6.67;5.33
76304;PMS7003;65111;50.536;19.204;2023-05-10T02:11:33;10.00;10.00;7.00
76304;PMS7003;65111;50.536;19.204;2023-05-10T02:13:59;10.00;6.00;4.00
76304;PMS7003;65111;50.536;19.204;2023-05-10T02:16:26;6.00;6.00;4.00
76304;PMS7003;65111;50.536;19.204;2023-05-10T02:18:56;10.00;6.00;4.00
76304;PMS7003;65111;50.536;19.204;2023-05-10T02:21:23;7.00;7.00;6.00
76304;PMS7003;65111;50.536;19.204;2023-05-10T02:23:51;6.00;6.00;4.00
76304;PMS7003;65111;50.536;19.204;2023-05-10T02:26:19;6.00;6.00;4.00
76304;PMS7003;65111;50.536;19.204;2023-05-10T02:28:47;6.00;6.00;4.00
76304;PMS7003;65111;50.536;19.204;2023-05-10T02:31:16;4.00;4.00;3.00
76304;PMS7003;65111;50.536;19.204;2023-05-10T02:33:43;7.00;6.00;4.00
76304;PMS7003;65111;50.536;19.204;2023-05-10T02:36:11;7.00;6.00;4.00
76304;PMS7003;65111;50.536;19.204;2023-05-10T02:38:39;9.00;6.00;4.00
76304;PMS7003;65111;50.536;19.204;2023-05-10T02:41:07;7.00;7.00;6.00
76304;PMS7003;65111;50.536;19.204;2023-05-10T02:43:34;8.00;6.00;4.00
76304;PMS7003;65111;50.536;19.204;2023-05-10T02:46:01;12.00;9.00;6.00
76304;PMS7003;65111;50.536;19.204;2023-05-10T02:48:27;6.00;6.00;4.00
76304;PMS7003;65111;50.536;19.204;2023-05-10T02:50:54;6.00;6.00;4.00
76304;PMS7003;65111;50.536;19.204;2023-05-10T02:53:31;7.00;7.00;4.00
76304;PMS7003;65111;50.536;19.204;2023-05-10T02:56:04;10.00;7.00;4.00
76304;PMS7003;65111;50.536;19.204;2023-05-10T02:58:36;7.00;6.00;4.00
76304;PMS7003;65111;50.536;19.204;2023-05-10T03:01:02;6.00;6.00;4.00
76304;PMS7003;65111;50.536;19.204;2023-05-10T03:03:28;7.00;7.00;6.00
76304;PMS7003;65111;50.536;19.204;2023-05-10T03:05:54;6.50;6.50;3.50
76304;PMS7003;65111;50.536;19.204;2023-05-10T03:08:22;4.67;4.67;4.00
76304;PMS7003;65111;50.536;19.204;2023-05-10T03:14:10;7.00;7.00;4.00
76304;PMS7003;65111;50.536;19.204;2023-05-10T03:17:00;7.50;5.00;3.50
76304;PMS7003;65111;50.536;19.204;2023-05-10T03:19:32;9.50;6.50;5.00
76304;PMS7003;65111;50.536;19.204;2023-05-10T03:22:09;8.33;7.33;5.33
76304;PMS7003;65111;50.536;19.204;2023-05-10T03:24:36;8.00;8.00;6.00
76304;PMS7003;65111;50.536;19.204;2023-05-10T03:27:06;10.00;10.00;9.00
76304;PMS7003;65111;50.536;19.204;2023-05-10T03:29:34;8.00;7.00;6.50
76304;PMS7003;65111;50.536;19.204;2023-05-10T03:32:01;16.00;12.00;9.33
76304;PMS7003;65111;50.536;19.204;2023-05-10T03:34:28;13.00;10.50;7.00
76304;PMS7003;65111;50.536;19.204;2023-05-10T03:36:56;12.00;9.00;6.50
76304;PMS7003;65111;50.536;19.204;2023-05-10T03:39:22;13.00;10.00;7.00
76304;PMS7003;65111;50.536;19.204;2023-05-10T03:41:47;9.00;7.00;5.00
76304;PMS7003;65111;50.536;19.204;2023-05-10T03:44:13;9.00;9.00;7.00
76304;PMS7003;65111;50.536;19.204;2023-05-10T03:46:39;12.00;9.50;6.50
76304;PMS7003;65111;50.536;19.204;2023-05-10T03:49:05;14.00;11.00;8.00
76304;PMS7003;65111;50.536;19.204;2023-05-10T03:51:31;8.00;8.00;7.00
76304;PMS7003;65111;50.536;19.204;2023-05-10T03:53:57;7.00;7.00;4.00
76304;PMS7003;65111;50.536;19.204;2023-05-10T03:56:23;10.00;10.00;7.00
76304;PMS7003;65111;50.536;19.204;2023-05-10T03:58:49;10.00;8.00;5.00
76304;PMS7003;65111;50.536;19.204;2023-05-10T04:01:15;9.33;8.00;7.00
76304;PMS7003;65111;50.536;19.204;2023-05-10T04:03:41;12.00;11.00;10.00
76304;PMS7003;65111;50.536;19.204;2023-05-10T04:06:07;9.00;9.00;6.50
76304;PMS7003;65111;50.536;19.204;2023-05-10T04:08:34;11.50;10.00;8.00
76304;PMS7003;65111;50.536;19.204;2023-05-10T04:11:06;10.00;10.00;6.00
76304;PMS7003;65111;50.536;19.204;2023-05-10T04:13:34;12.00;11.00;8.00
76304;PMS7003;65111;50.536;19.204;2023-05-10T04:16:00;13.00;8.00;5.50
76304;PMS7003;65111;50.536;19.204;2023-05-10T04:18:26;12.00;10.50;8.00
76304;PMS7003;65111;50.536;19.204;2023-05-10T04:20:53;9.00;9.00;8.00
76304;PMS7003;65111;50.536;19.204;2023-05-10T04:23:19;9.33;9.00;6.00
76304;PMS7003;65111;50.536;19.204;2023-05-10T04:25:45;7.00;7.00;5.00
76304;PMS7003;65111;50.536;19.204;2023-05-10T04:28:11;10.00;10.00;6.00
76304;PMS7003;65111;50.536;19.204;2023-05-10T04:30:37;9.00;9.00;6.00
76304;PMS7003;65111;50.536;19.204;2023-05-10T04:33:03;9.00;9.00;7.00
76304;PMS7003;65111;50.536;19.204;2023-05-10T04:35:29;8.00;8.00;6.00
76304;PMS7003;65111;50.536;19.204;2023-05-10T04:37:55;7.33;5.67;3.00
76304;PMS7003;65111;50.536;19.204;2023-05-10T04:40:21;9.67;9.33;6.67
76304;PMS7003;65111;50.536;19.204;2023-05-10T04:42:48;10.50;9.50;7.00
76304;PMS7003;65111;50.536;19.204;2023-05-10T04:45:13;9.00;8.00;6.00
76304;PMS7003;65111;50.536;19.204;2023-05-10T04:47:42;10.00;9.00;7.00
76304;PMS7003;65111;50.536;19.204;2023-05-10T04:50:08;7.00;7.00;3.50
76304;PMS7003;65111;50.536;19.204;2023-05-10T04:52:34;9.00;8.50;6.50
76304;PMS7003;65111;50.536;19.204;2023-05-10T04:55:00;8.00;8.00;6.00
76304;PMS7003;65111;50.536;19.204;2023-05-10T04:57:26;9.50;8.00;6.00
76304;PMS7003;65111;50.536;19.204;2023-05-10T04:59:52;8.00;7.00;5.00
76304;PMS7003;65111;50.536;19.204;2023-05-10T05:02:18;9.00;8.00;7.00
76304;PMS7003;65111;50.536;19.204;2023-05-10T05:04:44;8.33;8.33;5.33
76304;PMS7003;65111;50.536;19.204;2023-05-10T05:07:10;8.00;8.00;5.00
76304;PMS7003;65111;50.536;19.204;2023-05-10T05:09:36;7.00;7.00;6.00
76304;PMS7003;65111;50.536;19.204;2023-05-10T05:12:02;8.00;8.00;6.50
76304;PMS7003;65111;50.536;19.204;2023-05-10T05:14:28;9.00;7.00;6.00
76304;PMS7003;65111;50.536;19.204;2023-05-10T05:16:54;10.00;9.50;6.50
76304;PMS7003;65111;50.536;19.204;2023-05-10T05:19:21;12.00;10.00;7.00
76304;PMS7003;65111;50.536;19.204;2023-05-10T05:21:47;8.00;7.50;6.00
76304;PMS7003;65111;50.536;19.204;2023-05-10T05:24:13;8.50;8.50;6.50
76304;PMS7003;65111;50.536;19.204;2023-05-10T05:26:39;7.50;7.50;6.00
76304;PMS7003;65111;50.536;19.204;2023-05-10T05:29:05;6.00;6.00;4.50
76304;PMS7003;65111;50.536;19.204;2023-05-10T05:31:31;8.00;7.00;6.00
76304;PMS7003;65111;50.536;19.204;2023-05-10T05:33:57;8.00;8.00;6.00
76304;PMS7003;65111;50.536;19.204;2023-05-10T05:38:49;7.00;7.00;6.00
76304;PMS7003;65111;50.536;19.204;2023-05-10T05:41:15;8.00;8.00;6.00
76304;PMS7003;65111;50.536;19.204;2023-05-10T05:43:41;7.50;7.50;6.50
76304;PMS7003;65111;50.536;19.204;2023-05-10T05:46:07;9.00;8.00;6.00
76304;PMS7003;65111;50.536;19.204;2023-05-10T05:48:33;6.00;6.00;4.00
76304;PMS7003;65111;50.536;19.204;2023-05-10T05:50:59;7.50;7.50;5.50
76304;PMS7003;65111;50.536;19.204;2023-05-10T05:53:25;7.50;7.50;5.50
76304;PMS7003;65111;50.536;19.204;2023-05-10T05:56:00;6.00;6.00;5.00
76304;PMS7003;65111;50.536;19.204;2023-05-10T05:58:27;7.00;7.00;6.00
76304;PMS7003;65111;50.536;19.204;2023-05-10T06:00:53;7.00;7.00;6.00
76304;PMS7003;65111;50.536;19.204;2023-05-10T06:03:19;7.00;7.00;5.00
76304;PMS7003;65111;50.536;19.204;2023-05-10T06:05:45;8.00;8.00;6.00
76304;PMS7003;65111;50.536;19.204;2023-05-10T06:08:12;5.50;5.50;4.50
76304;PMS7003;65111;50.536;19.204;2023-05-10T06:10:38;7.00;7.00;5.00
76304;PMS7003;65111;50.536;19.204;2023-05-10T06:13:04;4.50;4.50;2.50
76304;PMS7003;65111;50.536;19.204;2023-05-10T06:15:30;8.00;6.00;5.00
76304;PMS7003;65111;50.536;19.204;2023-05-10T06:17:56;6.00;6.00;4.00
76304;PMS7003;65111;50.536;19.204;2023-05-10T06:20:22;4.00;4.00;3.00
76304;PMS7003;65111;50.536;19.204;2023-05-10T06:22:47;5.00;5.00;4.00
76304;PMS7003;65111;50.536;19.204;2023-05-10T06:25:14;7.00;6.00;4.00
76304;PMS7003;65111;50.536;19.204;2023-05-10T06:27:40;4.00;4.00;3.00
76304;PMS7003;65111;50.536;19.204;2023-05-10T06:30:06;3.50;3.50;2.50
76304;PMS7003;65111;50.536;19.204;2023-05-10T06:32:34;4.00;4.00;2.00
76304;PMS7003;65111;50.536;19.204;2023-05-10T06:35:00;5.50;4.50;4.00
76304;PMS7003;65111;50.536;19.204;2023-05-10T06:37:26;4.00;4.00;3.00
76304;PMS7003;65111;50.536;19.204;2023-05-10T06:39:51;6.00;4.00;3.00
76304;PMS7003;65111;50.536;19.204;2023-05-10T06:42:17;7.00;5.00;4.00
76304;PMS7003;65111;50.536;19.204;2023-05-10T06:44:43;6.00;6.00;4.00
76304;PMS7003;65111;50.536;19.204;2023-05-10T06:47:09;3.00;3.00;2.00
76304;PMS7003;65111;50.536;19.204;2023-05-10T06:49:35;5.50;5.50;4.00
76304;PMS7003;65111;50.536;19.204;2023-05-10T06:52:02;4.00;4.00;3.00
76304;PMS7003;65111;50.536;19.204;2023-05-10T06:54:28;5.00;5.00;4.00
76304;PMS7003;65111;50.536;19.204;2023-05-10T06:56:54;6.00;5.00;4.00
76304;PMS7003;65111;50.536;19.204;2023-05-10T06:59:20;5.00;5.00;4.00
76304;PMS7003;65111;50.536;19.204;2023-05-10T07:01:47;4.00;4.00;3.00
76304;PMS7003;65111;50.536;19.204;2023-05-10T07:04:13;3.00;2.33;1.67
76304;PMS7003;65111;50.536;19.204;2023-05-10T07:06:39;3.00;3.00;3.00
76304;PMS7003;65111;50.536;19.204;2023-05-10T07:09:05;5.50;4.50;4.00
76304;PMS7003;65111;50.536;19.204;2023-05-10T07:11:31;4.00;4.00;3.00
76304;PMS7003;65111;50.536;19.204;2023-05-10T07:13:57;3.00;3.00;2.00
76304;PMS7003;65111;50.536;19.204;2023-05-10T07:16:23;1.00;1.00;0.00
76304;PMS7003;65111;50.536;19.204;2023-05-10T07:18:49;3.00;2.00;2.00
76304;PMS7003;65111;50.536;19.204;2023-05-10T07:21:16;2.00;2.00;2.00
76304;PMS7003;65111;50.536;19.204;2023-05-10T07:23:41;3.00;3.00;2.00
76304;PMS7003;65111;50.536;19.204;2023-05-10T07:26:07;2.00;2.00;2.00
76304;PMS7003;65111;50.536;19.204;2023-05-10T07:28:34;2.33;2.33;1.67
76304;PMS7003;65111;50.536;19.204;2023-05-10T07:31:02;3.00;3.00;2.00
76304;PMS7003;65111;50.536;19.204;2023-05-10T07:33:28;3.00;3.00;3.00
76304;PMS7003;65111;50.536;19.204;2023-05-10T07:35:55;4.00;3.00;2.00
76304;PMS7003;65111;50.536;19.204;2023-05-10T07:38:21;3.50;3.50;2.50
76304;PMS7003;65111;50.536;19.204;2023-05-10T07:40:47;2.00;2.00;1.00
76304;PMS7003;65111;50.536;19.204;2023-05-10T07:43:13;2.00;2.00;1.50
76304;PMS7003;65111;50.536;19.204;2023-05-10T07:45:38;3.00;2.00;2.00
76304;PMS7003;65111;50.536;19.204;2023-05-10T07:48:04;2.00;2.00;1.33
76304;PMS7003;65111;50.536;19.204;2023-05-10T07:50:31;2.00;2.00;2.00
76304;PMS7003;65111;50.536;19.204;2023-05-10T07:52:56;1.00;1.00;1.00
76304;PMS7003;65111;50.536;19.204;2023-05-10T07:55:23;3.00;3.00;2.00
76304;PMS7003;65111;50.536;19.204;2023-05-10T07:57:49;2.00;2.00;2.00
76304;PMS7003;65111;50.536;19.204;2023-05-10T08:00:19;2.00;2.00;1.00
76304;PMS7003;65111;50.536;19.204;2023-05-10T08:02:45;2.00;2.00;2.00
76304;PMS7003;65111;50.536;19.204;2023-05-10T08:05:12;2.00;1.50;1.00
76304;PMS7003;65111;50.536;19.204;2023-05-10T08:07:38;2.00;2.00;1.00
76304;PMS7003;65111;50.536;19.204;2023-05-10T08:10:05;2.00;2.00;1.00
76304;PMS7003;65111;50.536;19.204;2023-05-10T08:12:31;2.00;2.00;1.50
76304;PMS7003;65111;50.536;19.204;2023-05-10T08:14:57;1.00;1.00;0.50
76304;PMS7003;65111;50.536;19.204;2023-05-10T08:17:23;1.00;1.00;1.00
76304;PMS7003;65111;50.536;19.204;2023-05-10T08:19:49;2.00;2.00;1.00
76304;PMS7003;65111;50.536;19.204;2023-05-10T08:22:15;1.00;1.00;1.00
76304;PMS7003;65111;50.536;19.204;2023-05-10T08:24:41;1.00;0.00;0.00
76304;PMS7003;65111;50.536;19.204;2023-05-10T08:27:08;1.00;1.00;1.00
76304;PMS7003;65111;50.536;19.204;2023-05-10T08:29:34;1.50;1.50;1.50
76304;PMS7003;65111;50.536;19.204;2023-05-10T08:32:00;1.00;1.00;1.00
76304;PMS7003;65111;50.536;19.204;2023-05-10T08:34:27;2.00;2.00;1.00
76304;PMS7003;65111;50.536;19.204;2023-05-10T08:36:53;0.00;0.00;0.00
76304;PMS7003;65111;50.536;19.204;2023-05-10T08:39:18;1.00;1.00;1.00
76304;PMS7003;65111;50.536;19.204;2023-05-10T08:41:45;2.00;2.00;1.33
76304;PMS7003;65111;50.536;19.204;2023-05-10T08:44:13;2.00;2.00;1.67
76304;PMS7003;65111;50.536;19.204;2023-05-10T08:46:41;1.00;1.00;1.00
76304;PMS7003;65111;50.536;19.204;2023-05-10T08:49:12;1.00;1.00;0.50
76304;PMS7003;65111;50.536;19.204;2023-05-10T08:51:42;1.00;1.00;0.50
76304;PMS7003;65111;50.536;19.204;2023-05-10T08:54:12;2.00;2.00;2.00
76304;PMS7003;65111;50.536;19.204;2023-05-10T08:56:39;2.50;2.50;1.50
76304;PMS7003;65111;50.536;19.204;2023-05-10T08:59:05;2.00;2.00;2.00
76304;PMS7003;65111;50.536;19.204;2023-05-10T09:01:31;1.00;1.00;0.50
76304;PMS7003;65111;50.536;19.204;2023-05-10T09:03:59;1.00;1.00;0.33
76304;PMS7003;65111;50.536;19.204;2023-05-10T09:06:25;0.75;0.75;0.50
76304;PMS7003;65111;50.536;19.204;2023-05-10T09:08:51;0.00;0.00;0.00
76304;PMS7003;65111;50.536;19.204;2023-05-10T09:11:17;1.00;1.00;1.00
76304;PMS7003;65111;50.536;19.204;2023-05-10T09:13:46;3.00;2.00;1.00
76304;PMS7003;65111;50.536;19.204;2023-05-10T09:16:15;1.00;1.00;1.00
76304;PMS7003;65111;50.536;19.204;2023-05-10T09:18:41;2.00;1.33;1.00
76304;PMS7003;65111;50.536;19.204;2023-05-10T09:21:06;3.00;2.00;1.00
76304;PMS7003;65111;50.536;19.204;2023-05-10T09:23:33;3.00;3.00;2.50
76304;PMS7003;65111;50.536;19.204;2023-05-10T09:26:03;2.00;2.00;2.00
76304;PMS7003;65111;50.536;19.204;2023-05-10T09:28:49;1.33;1.33;1.33
76304;PMS7003;65111;50.536;19.204;2023-05-10T09:31:17;1.00;1.00;1.00
76304;PMS7003;65111;50.536;19.204;2023-05-10T09:33:47;1.00;1.00;0.67
76304;PMS7003;65111;50.536;19.204;2023-05-10T09:36:14;4.00;3.00;2.50
76304;PMS7003;65111;50.536;19.204;2023-05-10T09:38:44;2.00;2.00;1.00
76304;PMS7003;65111;50.536;19.204;2023-05-10T09:41:18;2.00;2.00;1.00
76304;PMS7003;65111;50.536;19.204;2023-05-10T09:43:46;1.00;1.00;1.00
76304;PMS7003;65111;50.536;19.204;2023-05-10T09:46:12;3.00;3.00;3.00
76304;PMS7003;65111;50.536;19.204;2023-05-10T09:48:40;2.00;2.00;2.00
76304;PMS7003;65111;50.536;19.204;2023-05-10T09:51:18;1.00;1.00;1.00
76304;PMS7003;65111;50.536;19.204;2023-05-10T09:53:48;3.00;3.00;3.00
76304;PMS7003;65111;50.536;19.204;2023-05-10T09:56:38;5.50;4.00;3.00
76304;PMS7003;65111;50.536;19.204;2023-05-10T09:59:06;2.50;2.50;2.00
76304;PMS7003;65111;50.536;19.204;2023-05-10T10:01:37;2.00;2.00;2.00
76304;PMS7003;65111;50.536;19.204;2023-05-10T10:04:04;2.00;2.00;1.50
76304;PMS7003;65111;50.536;19.204;2023-05-10T10:06:41;2.00;2.00;2.00
76304;PMS7003;65111;50.536;19.204;2023-05-10T10:09:07;2.50;2.50;2.00
76304;PMS7003;65111;50.536;19.204;2023-05-10T10:11:35;2.00;2.00;1.00
76304;PMS7003;65111;50.536;19.204;2023-05-10T10:14:02;3.00;3.00;2.00
76304;PMS7003;65111;50.536;19.204;2023-05-10T10:16:31;2.50;2.50;1.50
76304;PMS7003;65111;50.536;19.204;2023-05-10T10:18:57;6.00;5.00;4.00
76304;PMS7003;65111;50.536;19.204;2023-05-10T10:21:24;3.00;3.00;2.50
76304;PMS7003;65111;50.536;19.204;2023-05-10T10:23:51;4.33;3.67;3.00
76304;PMS7003;65111;50.536;19.204;2023-05-10T10:26:18;2.50;2.50;2.00
76304;PMS7003;65111;50.536;19.204;2023-05-10T10:31:34;2.00;2.00;2.00
76304;PMS7003;65111;50.536;19.204;2023-05-10T10:34:06;4.00;3.00;2.00
76304;PMS7003;65111;50.536;19.204;2023-05-10T10:36:45;1.50;1.00;1.00
76304;PMS7003;65111;50.536;19.204;2023-05-10T10:39:11;3.00;3.00;2.00
76304;PMS7003;65111;50.536;19.204;2023-05-10T10:41:39;2.00;2.00;2.00
76304;PMS7003;65111;50.536;19.204;2023-05-10T10:47:01;2.00;2.00;2.00
76304;PMS7003;65111;50.536;19.204;2023-05-10T10:57:53;3.00;2.00;2.00
76304;PMS7003;65111;50.536;19.204;2023-05-10T11:00:28;2.00;2.00;2.00
76304;PMS7003;65111;50.536;19.204;2023-05-10T11:03:04;3.00;3.00;2.00
76304;PMS7003;65111;50.536;19.204;2023-05-10T11:10:49;2.50;2.50;1.50
76304;PMS7003;65111;50.536;19.204;2023-05-10T11:13:39;3.00;3.00;2.00
76304;PMS7003;65111;50.536;19.204;2023-05-10T11:16:11;3.50;3.50;3.00
76304;PMS7003;65111;50.536;19.204;2023-05-10T11:18:37;1.00;1.00;1.00
76304;PMS7003;65111;50.536;19.204;2023-05-10T11:21:03;1.00;1.00;1.00
76304;PMS7003;65111;50.536;19.204;2023-05-10T11:26:03;1.00;1.00;0.00
76304;PMS7003;65111;50.536;19.204;2023-05-10T11:28:44;1.00;1.00;1.00
76304;PMS7003;65111;50.536;19.204;2023-05-10T11:31:13;0.00;0.00;0.00
76304;PMS7003;65111;50.536;19.204;2023-05-10T11:36:46;4.00;4.00;4.00
76304;PMS7003;65111;50.536;19.204;2023-05-10T11:39:05;3.50;3.50;2.50
76304;PMS7003;65111;50.536;19.204;2023-05-10T11:41:31;6.50;5.50;4.00
76304;PMS7003;65111;50.536;19.204;2023-05-10T11:43:57;3.00;3.00;2.00
76304;PMS7003;65111;50.536;19.204;2023-05-10T11:46:24;2.50;2.50;2.00
76304;PMS7003;65111;50.536;19.204;2023-05-10T11:48:53;3.00;3.00;3.00
76304;PMS7003;65111;50.536;19.204;2023-05-10T11:51:23;6.00;4.00;3.00
76304;PMS7003;65111;50.536;19.204;2023-05-10T11:53:52;3.00;3.00;2.00
76304;PMS7003;65111;50.536;19.204;2023-05-10T11:56:19;5.00;4.00;3.00
76304;PMS7003;65111;50.536;19.204;2023-05-10T11:58:51;3.00;3.00;3.00
76304;PMS7003;65111;50.536;19.204;2023-05-10T12:01:19;3.00;2.00;2.00
76304;PMS7003;65111;50.536;19.204;2023-05-10T12:03:46;4.00;4.00;3.00
76304;PMS7003;65111;50.536;19.204;2023-05-10T12:06:13;3.00;2.00;2.50
76304;PMS7003;65111;50.536;19.204;2023-05-10T12:08:43;4.00;4.00;3.00
76304;PMS7003;65111;50.536;19.204;2023-05-10T12:11:12;5.00;4.00;3.00
76304;PMS7003;65111;50.536;19.204;2023-05-10T12:13:43;3.00;3.00;3.00
76304;PMS7003;65111;50.536;19.204;2023-05-10T12:16:12;3.00;3.00;3.00
76304;PMS7003;65111;50.536;19.204;2023-05-10T12:18:40;4.67;4.00;3.00
76304;PMS7003;65111;50.536;19.204;2023-05-10T12:21:09;4.00;4.00;3.00
76304;PMS7003;65111;50.536;19.204;2023-05-10T12:23:37;4.00;4.00;4.00
76304;PMS7003;65111;50.536;19.204;2023-05-10T12:26:04;4.67;3.33;3.00
76304;PMS7003;65111;50.536;19.204;2023-05-10T12:28:31;4.00;4.00;2.50
76304;PMS7003;65111;50.536;19.204;2023-05-10T12:31:01;3.00;3.00;3.00
76304;PMS7003;65111;50.536;19.204;2023-05-10T12:33:35;4.00;3.00;2.00
76304;PMS7003;65111;50.536;19.204;2023-05-10T12:36:04;3.50;3.50;2.50
76304;PMS7003;65111;50.536;19.204;2023-05-10T12:38:32;3.50;3.00;2.50
76304;PMS7003;65111;50.536;19.204;2023-05-10T12:41:01;4.00;4.00;3.00
76304;PMS7003;65111;50.536;19.204;2023-05-10T12:43:35;3.00;3.00;2.00
76304;PMS7003;65111;50.536;19.204;2023-05-10T12:46:05;3.00;3.00;3.00
76304;PMS7003;65111;50.536;19.204;2023-05-10T12:48:33;3.00;3.00;2.00
76304;PMS7003;65111;50.536;19.204;2023-05-10T12:51:00;4.00;4.00;3.00
76304;PMS7003;65111;50.536;19.204;2023-05-10T12:53:27;3.00;3.00;3.00
76304;PMS7003;65111;50.536;19.204;2023-05-10T12:55:53;3.50;3.50;3.00
76304;PMS7003;65111;50.536;19.204;2023-05-10T12:58:19;5.00;5.00;3.50
76304;PMS7003;65111;50.536;19.204;2023-05-10T13:00:45;3.00;3.00;3.00
76304;PMS7003;65111;50.536;19.204;2023-05-10T13:03:12;3.00;3.00;2.00
76304;PMS7003;65111;50.536;19.204;2023-05-10T13:05:38;3.00;3.00;2.50
76304;PMS7003;65111;50.536;19.204;2023-05-10T13:08:04;3.00;3.00;3.00
76304;PMS7003;65111;50.536;19.204;2023-05-10T13:10:30;4.33;3.33;3.00
76304;PMS7003;65111;50.536;19.204;2023-05-10T13:13:00;2.00;2.00;2.00
76304;PMS7003;65111;50.536;19.204;2023-05-10T13:15:26;3.00;3.00;1.00
76304;PMS7003;65111;50.536;19.204;2023-05-10T13:17:52;3.00;3.00;1.00
76304;PMS7003;65111;50.536;19.204;2023-05-10T13:20:19;4.00;4.00;3.00
76304;PMS7003;65111;50.536;19.204;2023-05-10T13:22:45;4.00;4.00;3.00
76304;PMS7003;65111;50.536;19.204;2023-05-10T13:25:12;5.00;3.00;3.00
76304;PMS7003;65111;50.536;19.204;2023-05-10T13:27:39;7.00;5.00;3.00
76304;PMS7003;65111;50.536;19.204;2023-05-10T13:30:06;4.50;4.00;3.00
76304;PMS7003;65111;50.536;19.204;2023-05-10T13:32:34;2.00;2.00;2.00
76304;PMS7003;65111;50.536;19.204;2023-05-10T13:35:01;3.00;3.00;3.00
76304;PMS7003;65111;50.536;19.204;2023-05-10T13:37:29;4.00;4.00;3.00
76304;PMS7003;65111;50.536;19.204;2023-05-10T13:39:55;5.00;3.00;3.00
76304;PMS7003;65111;50.536;19.204;2023-05-10T13:42:22;4.00;3.00;2.50
76304;PMS7003;65111;50.536;19.204;2023-05-10T13:44:49;4.00;4.00;3.00
76304;PMS7003;65111;50.536;19.204;2023-05-10T13:47:16;5.00;5.00;4.00
76304;PMS7003;65111;50.536;19.204;2023-05-10T13:49:42;3.67;3.00;2.00
76304;PMS7003;65111;50.536;19.204;2023-05-10T13:52:08;4.00;4.00;3.00
76304;PMS7003;65111;50.536;19.204;2023-05-10T13:54:38;4.00;4.00;3.00
76304;PMS7003;65111;50.536;19.204;2023-05-10T13:57:04;3.00;3.00;2.00
76304;PMS7003;65111;50.536;19.204;2023-05-10T13:59:30;3.00;3.00;2.50
76304;PMS7003;65111;50.536;19.204;2023-05-10T14:01:57;5.00;3.50;3.00
76304;PMS7003;65111;50.536;19.204;2023-05-10T14:04:24;2.00;2.00;2.00
76304;PMS7003;65111;50.536;19.204;2023-05-10T14:06:50;5.00;4.00;4.00
76304;PMS7003;65111;50.536;19.204;2023-05-10T14:09:18;4.33;4.33;4.00
76304;PMS7003;65111;50.536;19.204;2023-05-10T14:11:44;5.50;5.00;4.00
76304;PMS7003;65111;50.536;19.204;2023-05-10T14:14:11;3.00;3.00;3.00
76304;PMS7003;65111;50.536;19.204;2023-05-10T14:16:38;4.00;4.00;4.00
76304;PMS7003;65111;50.536;19.204;2023-05-10T14:19:07;4.00;4.00;3.00
76304;PMS7003;65111;50.536;19.204;2023-05-10T14:21:32;0.00;0.00;0.00
76304;PMS7003;65111;50.536;19.204;2023-05-10T14:23:59;4.00;4.00;3.00
76304;PMS7003;65111;50.536;19.204;2023-05-10T14:26:25;4.00;4.00;3.00
76304;PMS7003;65111;50.536;19.204;2023-05-10T14:28:51;4.67;3.00;2.33
76304;PMS7003;65111;50.536;19.204;2023-05-10T14:31:17;3.00;3.00;3.00
76304;PMS7003;65111;50.536;19.204;2023-05-10T14:33:48;4.00;4.00;3.00
76304;PMS7003;65111;50.536;19.204;2023-05-10T14:36:14;3.00;3.00;3.00
76304;PMS7003;65111;50.536;19.204;2023-05-10T14:38:41;4.00;2.50;2.50
76304;PMS7003;65111;50.536;19.204;2023-05-10T14:41:07;3.50;3.50;2.00
76304;PMS7003;65111;50.536;19.204;2023-05-10T14:43:33;3.00;3.00;2.00
76304;PMS7003;65111;50.536;19.204;2023-05-10T14:45:59;2.00;2.00;2.00
76304;PMS7003;65111;50.536;19.204;2023-05-10T14:48:25;3.00;3.00;3.00
76304;PMS7003;65111;50.536;19.204;2023-05-10T14:50:51;3.00;3.00;3.00
76304;PMS7003;65111;50.536;19.204;2023-05-10T14:53:18;3.00;3.00;2.00
76304;PMS7003;65111;50.536;19.204;2023-05-10T14:55:44;8.00;4.00;3.00
76304;PMS7003;65111;50.536;19.204;2023-05-10T14:58:10;3.00;3.00;3.00
76304;PMS7003;65111;50.536;19.204;2023-05-10T15:00:36;5.50;3.50;3.00
76304;PMS7003;65111;50.536;19.204;2023-05-10T15:03:02;4.50;4.00;3.50